createdAt,value
2024-03-02T00:02:15.117Z,113.10
2024-03-02T00:05:02.680Z,116.55
2024-03-02T00:07:56.760Z,120.05
2024-03-02T00:10:44.340Z,116.95
2024-03-02T00:13:32.644Z,117.00
2024-03-02T00:16:21.403Z,117.32
2024-03-02T00:19:11.230Z,126.07
2024-03-02T00:21:58.885Z,129.10
2024-03-02T00:24:46.416Z,128.70
2024-03-02T00:27:34.124Z,124.50
2024-03-02T00:30:54.121Z,121.20
2024-03-02T00:33:44.427Z,126.68
2024-03-02T00:36:32.024Z,124.22
2024-03-02T00:39:20.435Z,124.32
2024-03-02T00:42:08.564Z,131.10
2024-03-02T00:44:55.803Z,127.72
2024-03-02T00:47:43.252Z,126.70
2024-03-02T00:50:33.741Z,125.67
2024-03-02T00:53:25.721Z,127.15
2024-03-02T00:56:14.009Z,132.73
2024-03-02T00:59:01.368Z,126.82
2024-03-02T01:01:50.034Z,120.93
2024-03-02T01:04:37.468Z,129.98
2024-03-02T01:07:26.269Z,124.43
2024-03-02T01:10:14.148Z,123.05
2024-03-02T01:13:01.751Z,130.57
2024-03-02T01:15:49.229Z,130.52
2024-03-02T01:18:36.726Z,134.02
2024-03-02T01:21:23.951Z,134.00
2024-03-02T01:24:12.738Z,134.82
2024-03-02T01:27:00.331Z,127.45
2024-03-02T01:29:47.613Z,125.63
2024-03-02T01:32:35.118Z,135.03
2024-03-02T01:35:22.412Z,126.07
2024-03-02T01:38:09.683Z,131.85
2024-03-02T01:40:59.656Z,127.67
2024-03-02T01:43:47.079Z,130.23
2024-03-02T01:46:34.520Z,134.80
2024-03-02T01:49:22.000Z,133.00
2024-03-02T01:52:09.336Z,135.15
2024-03-02T01:54:56.972Z,135.98
2024-03-02T01:57:46.488Z,128.77
2024-03-02T02:00:33.949Z,139.87
2024-03-02T02:03:21.401Z,134.82
2024-03-02T02:06:10.011Z,135.73
2024-03-02T02:08:57.540Z,131.60
2024-03-02T02:11:45.263Z,128.90
2024-03-02T02:14:33.867Z,125.65
2024-03-02T02:17:21.905Z,128.50
2024-03-02T02:20:10.191Z,131.05
2024-03-02T02:23:00.834Z,127.65
2024-03-02T02:25:48.211Z,133.82
2024-03-02T02:28:35.726Z,131.00
2024-03-02T02:31:23.234Z,129.07
2024-03-02T02:34:11.172Z,127.45
2024-03-02T02:36:58.643Z,127.88
2024-03-02T02:39:47.815Z,122.90
2024-03-02T02:42:35.319Z,122.90
2024-03-02T02:45:22.935Z,117.55
2024-03-02T02:48:10.606Z,118.00
2024-03-02T02:50:57.731Z,116.45
2024-03-02T02:53:45.138Z,124.75
2024-03-02T02:56:33.965Z,119.03
2024-03-02T02:59:21.540Z,124.57
2024-03-02T03:02:09.290Z,118.88
2024-03-02T03:04:58.689Z,72.15
2024-03-02T03:07:46.532Z,67.05
2024-03-02T03:10:34.461Z,61.33
2024-03-02T03:13:23.901Z,66.53
2024-03-02T03:16:11.259Z,67.60
2024-03-02T03:18:58.955Z,57.88
2024-03-02T03:21:46.301Z,56.45
2024-03-02T03:24:34.480Z,59.15
2024-03-02T03:27:22.162Z,73.60
2024-03-02T03:30:12.189Z,64.40
2024-03-02T03:32:59.559Z,62.15
2024-03-02T03:35:46.887Z,66.00
2024-03-02T03:38:34.141Z,59.30
2024-03-02T03:41:21.779Z,67.95
2024-03-02T03:44:09.235Z,75.85
2024-03-02T03:46:58.048Z,65.18
2024-03-02T03:49:45.656Z,67.93
2024-03-02T03:52:33.129Z,65.10
2024-03-02T03:55:20.291Z,63.92
2024-03-02T03:58:07.507Z,67.38
2024-03-02T04:00:55.058Z,83.80
2024-03-02T04:03:43.945Z,69.18
2024-03-02T04:06:31.290Z,61.17
2024-03-02T04:09:18.576Z,57.25
2024-03-02T04:12:06.571Z,63.88
2024-03-02T04:14:54.446Z,73.10
2024-03-02T04:17:41.841Z,56.78
2024-03-02T04:20:30.901Z,65.72
2024-03-02T04:23:18.312Z,53.63
2024-03-02T04:26:06.573Z,74.25
2024-03-02T04:28:53.929Z,67.10
2024-03-02T04:31:41.383Z,57.42
2024-03-02T04:34:28.675Z,64.03
2024-03-02T04:37:17.563Z,57.05
2024-03-02T04:40:08.980Z,72.57
2024-03-02T04:42:56.741Z,64.85
2024-03-02T04:45:45.007Z,66.50
2024-03-02T04:48:33.204Z,66.07
2024-03-02T04:51:20.622Z,68.82
2024-03-02T04:54:09.398Z,69.13
2024-03-02T04:56:56.688Z,58.15
2024-03-02T04:59:44.378Z,67.05
2024-03-02T05:02:31.453Z,58.92
2024-03-02T05:05:18.751Z,67.38
2024-03-02T05:08:06.723Z,67.13
2024-03-02T05:10:55.851Z,72.72
2024-03-02T05:13:42.994Z,63.05
2024-03-02T05:16:30.425Z,62.08
2024-03-02T05:19:17.745Z,65.32
2024-03-02T05:22:05.623Z,65.10
2024-03-02T05:24:52.928Z,54.90
2024-03-02T05:27:42.201Z,60.63
2024-03-02T05:30:29.640Z,63.42
2024-03-02T05:33:17.077Z,60.85
2024-03-02T05:36:04.618Z,55.33
2024-03-02T05:38:51.998Z,54.03
2024-03-02T05:41:40.099Z,59.42
2024-03-02T05:44:29.050Z,69.85
2024-03-02T05:47:16.320Z,63.58
2024-03-02T05:50:04.946Z,54.67
2024-03-02T05:52:52.360Z,58.20
2024-03-02T05:55:39.781Z,56.17
2024-03-02T05:58:39.107Z,57.55
2024-03-02T06:01:29.866Z,60.42
2024-03-02T06:04:17.355Z,53.55
2024-03-02T06:07:05.293Z,65.05
2024-03-02T06:09:53.677Z,56.28
2024-03-02T06:12:41.220Z,68.00
2024-03-02T06:15:28.495Z,54.83
2024-03-02T06:18:17.354Z,64.20
2024-03-02T06:21:05.213Z,73.45
2024-03-02T06:23:52.460Z,57.60
2024-03-02T06:26:40.746Z,65.07
2024-03-02T06:29:28.301Z,50.28
2024-03-02T06:32:15.625Z,55.88
2024-03-02T06:35:05.957Z,62.05
2024-03-02T06:37:53.467Z,62.60
2024-03-02T06:40:41.822Z,69.85
2024-03-02T06:43:29.022Z,67.45
2024-03-02T06:46:16.784Z,67.93
2024-03-02T06:49:05.353Z,66.00
2024-03-02T06:51:54.519Z,71.20
2024-03-02T06:54:41.739Z,73.70
2024-03-02T06:57:29.096Z,78.20
2024-03-02T07:00:18.996Z,83.60
2024-03-02T07:03:06.667Z,82.30
2024-03-02T07:05:53.870Z,76.90
2024-03-02T07:08:42.755Z,75.53
2024-03-02T07:11:30.044Z,69.88
2024-03-02T07:14:17.084Z,68.22
2024-03-02T07:17:04.563Z,75.82
2024-03-02T07:19:52.195Z,90.72
2024-03-02T07:22:42.400Z,78.90
2024-03-02T07:28:23.277Z,66.88
2024-03-02T07:31:11.079Z,74.30
2024-03-02T07:33:58.788Z,71.07
2024-03-02T07:36:46.099Z,65.32
2024-03-02T07:39:33.508Z,79.45
2024-03-02T07:42:22.266Z,76.32
2024-03-02T07:45:10.098Z,68.55
2024-03-02T07:47:57.743Z,67.30
2024-03-02T07:50:45.715Z,63.58
2024-03-02T07:53:33.227Z,62.80
2024-03-02T07:56:23.418Z,61.75
2024-03-02T07:59:12.286Z,61.13
2024-03-02T08:02:00.096Z,67.93
2024-03-02T08:04:48.598Z,63.63
2024-03-02T08:07:36.128Z,59.03
2024-03-02T08:10:23.809Z,63.40
2024-03-02T08:13:11.299Z,61.87
2024-03-02T08:16:00.323Z,63.22
2024-03-02T08:18:48.034Z,56.57
2024-03-02T08:21:36.594Z,56.83
2024-03-02T08:24:24.258Z,59.03
2024-03-02T08:27:11.665Z,61.33
2024-03-02T08:29:59.189Z,58.03
2024-03-02T08:32:48.611Z,57.85
2024-03-02T08:35:37.392Z,54.42
2024-03-02T14:36:19.340Z,21.05
2024-03-02T14:39:11.205Z,24.70
2024-03-02T14:41:58.899Z,24.50
2024-03-02T14:44:47.913Z,24.98
2024-03-02T14:47:36.551Z,25.45
2024-03-02T14:50:24.196Z,25.65
2024-03-02T14:53:11.410Z,22.17
2024-03-02T14:55:59.124Z,22.77
2024-03-02T14:58:46.793Z,24.80
2024-03-02T15:01:35.794Z,23.73
2024-03-02T15:04:23.918Z,22.30
2024-03-02T15:07:11.259Z,21.55
2024-03-02T15:09:58.572Z,26.38
2024-03-02T15:26:44.196Z,44.20
2024-03-02T15:29:32.288Z,71.05
2024-03-02T15:32:19.783Z,51.97
2024-03-02T15:35:09.984Z,85.65
2024-03-02T15:49:09.017Z,34.15
2024-03-02T15:52:01.294Z,28.60
2024-03-02T15:54:48.682Z,27.55
2024-03-02T15:57:37.750Z,30.73
2024-03-02T16:00:25.194Z,32.75
2024-03-02T16:03:12.558Z,58.03
2024-03-02T16:06:02.606Z,57.38
2024-03-02T16:50:50.636Z,31.17
2024-03-02T16:53:38.167Z,32.67
2024-03-02T16:56:25.768Z,36.53
2024-03-02T16:59:14.649Z,50.67
2024-03-02T17:02:01.925Z,56.42
2024-03-02T17:04:49.343Z,47.00
2024-03-02T17:07:36.724Z,38.83
2024-03-02T17:10:24.133Z,45.95
2024-03-02T17:13:11.335Z,34.90
2024-03-02T17:16:00.158Z,34.22
2024-03-02T17:18:47.769Z,34.13
2024-03-02T17:21:35.285Z,26.80
2024-03-02T17:24:22.565Z,28.20
2024-03-02T17:27:10.324Z,29.92
2024-03-02T17:29:58.056Z,28.80
2024-03-02T17:32:46.742Z,31.80
2024-03-02T17:35:36.099Z,27.60
2024-03-02T17:38:23.431Z,34.83
2024-03-02T17:41:11.723Z,40.67
2024-03-02T17:43:59.068Z,39.17
2024-03-02T17:46:46.529Z,32.80
2024-03-02T17:49:35.443Z,35.40
2024-03-02T17:52:22.644Z,46.88
2024-03-02T17:55:10.531Z,35.20
2024-03-02T17:57:58.625Z,38.28
2024-03-02T18:00:47.562Z,30.10
2024-03-02T18:03:35.291Z,36.97
2024-03-02T18:06:25.855Z,41.28
2024-03-02T18:09:14.549Z,43.20
2024-03-02T18:12:04.606Z,40.67
2024-03-02T18:14:51.956Z,41.78
2024-03-02T18:17:40.114Z,39.63
2024-03-02T18:20:27.637Z,49.55
2024-03-02T18:23:16.597Z,55.65
2024-03-02T18:26:03.984Z,50.92
2024-03-02T18:28:51.330Z,39.67
2024-03-02T18:31:38.762Z,41.25
2024-03-02T18:34:26.445Z,33.78
2024-03-02T18:37:14.704Z,33.13
2024-03-02T18:40:06.888Z,34.15
2024-03-02T18:42:56.152Z,36.33
2024-03-02T18:45:49.493Z,41.00
2024-03-02T18:48:37.707Z,35.53
2024-03-02T18:51:26.793Z,32.70
2024-03-02T18:54:17.566Z,30.50
2024-03-02T18:57:07.525Z,27.42
2024-03-02T18:59:56.297Z,25.27
2024-03-02T19:02:49.600Z,27.23
2024-03-02T19:05:40.001Z,21.98
2024-03-02T19:08:28.249Z,27.30
2024-03-02T19:11:16.136Z,24.38
2024-03-02T19:14:04.732Z,27.80
2024-03-02T19:16:52.135Z,27.10
2024-03-02T19:19:40.763Z,22.60
2024-03-02T19:22:29.488Z,27.75
2024-03-02T19:25:17.217Z,25.85
2024-03-02T19:28:05.888Z,17.75
2024-03-02T19:30:56.073Z,20.42
2024-03-02T19:33:46.263Z,18.50
2024-03-02T19:36:35.235Z,16.55
2024-03-02T19:39:27.435Z,19.13
2024-03-02T19:42:14.906Z,19.90
2024-03-02T19:45:02.499Z,16.77
2024-03-02T19:47:51.257Z,18.75
2024-03-02T19:50:40.918Z,20.38
2024-03-02T19:53:28.643Z,15.20
2024-03-02T19:56:20.486Z,20.58
2024-03-02T19:59:11.453Z,19.17
2024-03-02T20:01:59.161Z,29.05
2024-03-02T20:04:48.639Z,21.58
2024-03-02T20:07:36.945Z,17.13
2024-03-02T20:10:24.556Z,24.45
2024-03-02T20:13:11.928Z,21.77
2024-03-02T20:16:00.269Z,22.45
2024-03-02T20:18:47.827Z,18.42
2024-03-02T20:21:36.520Z,18.58
2024-03-02T20:24:24.828Z,16.60
2024-03-02T20:27:12.209Z,14.70
2024-03-02T20:29:59.755Z,17.70
2024-03-02T20:32:47.216Z,15.73
2024-03-02T20:35:34.753Z,16.52
2024-03-02T20:38:23.484Z,17.00
2024-03-02T20:41:16.526Z,16.55
2024-03-02T20:44:03.981Z,17.20
2024-03-02T20:46:51.604Z,23.95
2024-03-02T20:49:43.425Z,18.15
2024-03-02T20:52:31.543Z,17.70
2024-03-02T20:55:20.207Z,18.35
2024-03-02T20:58:07.434Z,18.17
2024-03-02T21:00:55.851Z,19.13
2024-03-02T21:03:45.311Z,16.23
2024-03-02T21:06:32.585Z,14.85
2024-03-02T21:09:20.187Z,18.58
2024-03-02T21:12:09.844Z,22.88
2024-03-02T21:14:57.499Z,17.20
2024-03-02T21:17:45.115Z,16.98
2024-03-02T21:20:32.247Z,15.88
2024-03-02T21:23:20.124Z,13.52
2024-03-02T21:26:07.570Z,12.70
2024-03-02T21:28:56.233Z,17.83
2024-03-02T21:31:43.676Z,21.10
2024-03-02T21:34:31.178Z,28.55
2024-03-02T21:37:18.768Z,31.48
2024-03-02T21:40:07.163Z,22.63
2024-03-02T21:42:55.054Z,19.05
2024-03-02T21:45:44.198Z,20.60
2024-03-02T21:48:31.818Z,18.65
2024-03-02T21:51:19.624Z,15.80
2024-03-02T21:54:07.373Z,21.77
2024-03-02T21:56:54.495Z,22.20
2024-03-02T21:59:42.612Z,18.80
2024-03-02T22:02:31.139Z,19.38
2024-03-02T22:05:18.435Z,13.05
2024-03-02T22:08:06.239Z,16.75
2024-03-02T22:10:53.971Z,16.13
2024-03-02T22:13:41.178Z,20.80
2024-03-02T22:16:28.328Z,16.33
2024-03-02T22:19:17.018Z,20.90
2024-03-02T22:22:04.401Z,21.27
2024-03-02T22:24:51.619Z,22.15
2024-03-02T22:27:41.990Z,28.33
2024-03-02T22:30:30.280Z,31.30
2024-03-02T22:33:17.505Z,29.30
2024-03-02T22:36:08.723Z,24.88
2024-03-02T22:38:56.183Z,28.17
2024-03-02T22:41:43.530Z,25.13
2024-03-02T22:44:33.058Z,20.55
2024-03-02T22:47:20.742Z,18.00
2024-03-02T22:50:09.554Z,19.88
2024-03-02T22:52:58.227Z,21.63
2024-03-02T22:55:46.025Z,26.95
2024-03-02T22:58:33.844Z,25.90
2024-03-02T23:01:22.535Z,23.55
2024-03-02T23:04:10.313Z,30.23
2024-03-02T23:06:57.776Z,29.02
2024-03-02T23:09:46.685Z,40.70
2024-03-02T23:12:34.296Z,34.05
2024-03-02T23:15:21.606Z,24.80
2024-03-02T23:18:09.217Z,27.08
2024-03-02T23:20:56.718Z,26.73
2024-03-02T23:23:44.318Z,28.33
2024-03-02T23:29:20.368Z,27.67
2024-03-02T23:32:08.198Z,25.90
2024-03-02T23:34:55.325Z,37.03
2024-03-02T23:37:42.699Z,28.38
2024-03-02T23:40:53.401Z,25.92
2024-03-02T23:43:42.161Z,24.92
2024-03-02T23:46:30.065Z,25.83
2024-03-02T23:49:17.621Z,23.08
2024-03-02T23:52:04.922Z,26.88
2024-03-02T23:54:52.645Z,22.17
2024-03-02T23:57:40.659Z,23.05
